createdAt,value
2023-02-07T00:01:37.935Z,26.03
2023-02-07T00:04:07.859Z,24.80
2023-02-07T00:06:37.990Z,23.37
2023-02-07T00:09:10.094Z,24.27
2023-02-07T00:11:40.700Z,25.47
2023-02-07T00:14:11.265Z,25.03
2023-02-07T00:16:39.783Z,23.93
2023-02-07T00:19:09.888Z,24.53
2023-02-07T00:21:38.388Z,26.17
2023-02-07T00:24:07.814Z,26.50
2023-02-07T00:26:36.273Z,25.77
2023-02-07T00:29:05.465Z,25.57
2023-02-07T00:31:36.622Z,26.57
2023-02-07T00:34:08.922Z,24.13
2023-02-07T00:36:38.138Z,25.33
2023-02-07T00:39:09.241Z,25.97
2023-02-07T00:41:37.667Z,25.80
2023-02-07T00:44:06.543Z,26.20
2023-02-07T00:46:35.940Z,25.30
2023-02-07T00:49:05.136Z,26.97
2023-02-07T00:51:35.393Z,24.73
2023-02-07T00:54:04.334Z,26.73
2023-02-07T00:56:33.773Z,26.63
2023-02-07T00:59:02.164Z,26.50
2023-02-07T01:01:30.707Z,27.83
2023-02-07T01:03:59.591Z,28.50
2023-02-07T01:06:29.586Z,27.77
2023-02-07T01:09:00.387Z,27.00
2023-02-07T01:11:29.917Z,27.63
2023-02-07T01:14:00.798Z,26.93
2023-02-07T01:16:31.812Z,26.17
2023-02-07T01:19:02.486Z,26.00
2023-02-07T01:21:30.952Z,27.90
2023-02-07T01:24:00.902Z,26.23
2023-02-07T01:26:29.372Z,25.83
2023-02-07T01:28:58.433Z,27.97
2023-02-07T01:31:26.895Z,28.77
2023-02-07T01:33:56.456Z,26.97
2023-02-07T01:36:25.985Z,28.27
2023-02-07T01:38:55.286Z,27.93
2023-02-07T01:41:28.135Z,27.60
2023-02-07T01:44:01.550Z,26.70
2023-02-07T01:46:32.508Z,30.10
2023-02-07T01:49:10.433Z,28.37
2023-02-07T01:51:42.206Z,27.03
2023-02-07T01:54:13.472Z,27.90
2023-02-07T01:56:47.936Z,28.50
2023-02-07T01:59:17.529Z,28.27
2023-02-07T02:01:47.616Z,29.90
2023-02-07T02:04:15.944Z,26.87
2023-02-07T02:06:45.264Z,29.03
2023-02-07T02:09:16.590Z,28.00
2023-02-07T02:12:25.738Z,26.73
2023-02-07T02:15:14.714Z,27.90
2023-02-07T02:18:04.203Z,28.67
2023-02-07T02:21:09.264Z,25.83
2023-02-07T02:23:49.573Z,27.33
2023-02-07T02:26:46.588Z,26.33
2023-02-07T02:29:55.068Z,27.93
2023-02-07T02:33:14.561Z,30.10
2023-02-07T02:35:54.169Z,27.47
2023-02-07T02:38:30.387Z,29.53
2023-02-07T02:41:06.086Z,29.63
2023-02-07T02:43:43.190Z,29.70
2023-02-07T02:46:16.982Z,27.70
2023-02-07T02:48:46.780Z,29.33
2023-02-07T02:51:16.419Z,27.83
2023-02-07T02:53:53.840Z,28.70
2023-02-07T02:56:57.120Z,29.03
2023-02-07T02:59:47.987Z,27.83
2023-02-07T03:02:29.898Z,28.90
2023-02-07T03:05:24.842Z,26.00
2023-02-07T03:08:05.767Z,27.50
2023-02-07T03:10:43.966Z,29.20
2023-02-07T03:13:19.122Z,28.20
2023-02-07T03:16:00.399Z,29.67
2023-02-07T03:18:35.746Z,28.17
2023-02-07T03:21:11.565Z,29.50
2023-02-07T03:23:42.181Z,30.43
2023-02-07T03:26:11.232Z,30.10
2023-02-07T03:28:41.534Z,28.83
2023-02-07T03:31:11.973Z,29.00
2023-02-07T03:33:41.541Z,29.10
2023-02-07T03:36:16.793Z,31.23
2023-02-07T03:38:46.711Z,28.10
2023-02-07T03:41:23.066Z,29.23
2023-02-07T03:43:52.692Z,29.90
2023-02-07T03:46:21.329Z,30.40
2023-02-07T03:48:49.636Z,28.80
2023-02-07T03:51:17.895Z,31.20
2023-02-07T03:53:47.603Z,30.67
2023-02-07T03:56:15.998Z,31.40
2023-02-07T03:58:44.258Z,30.77
2023-02-07T04:01:12.718Z,30.13
2023-02-07T04:03:41.043Z,30.93
2023-02-07T04:06:09.593Z,31.93
2023-02-07T04:08:37.983Z,29.27
2023-02-07T04:11:07.956Z,27.17
2023-02-07T04:13:36.281Z,27.47
2023-02-07T04:16:06.956Z,31.13
2023-02-07T04:18:35.543Z,30.00
2023-02-07T04:21:04.252Z,30.70
2023-02-07T04:23:33.116Z,30.77
2023-02-07T04:26:01.474Z,31.00
2023-02-07T04:28:31.668Z,28.50
2023-02-07T04:31:00.055Z,30.83
2023-02-07T04:33:28.481Z,27.07
2023-02-07T04:35:57.313Z,24.43
2023-02-07T04:38:26.228Z,30.67
2023-02-07T04:40:59.542Z,30.57
2023-02-07T04:43:28.060Z,30.63
2023-02-07T04:45:57.752Z,30.03
2023-02-07T04:48:26.036Z,29.17
2023-02-07T04:50:54.567Z,28.57
2023-02-07T04:53:23.038Z,28.73
2023-02-07T04:55:52.460Z,29.80
2023-02-07T04:58:21.478Z,30.33
2023-02-07T05:00:50.178Z,28.93
2023-02-07T05:03:19.856Z,28.87
2023-02-07T05:06:01.316Z,30.27
2023-02-07T05:08:29.605Z,29.67
2023-02-07T05:10:58.147Z,30.30
2023-02-07T05:13:26.571Z,32.20
2023-02-07T05:15:54.961Z,32.43
2023-02-07T05:18:24.965Z,33.40
2023-02-07T05:20:55.253Z,31.47
2023-02-07T05:23:23.736Z,30.13
2023-02-07T05:25:52.075Z,30.50
2023-02-07T05:28:20.362Z,29.87
2023-02-07T05:30:48.868Z,29.30
2023-02-07T05:33:16.239Z,31.70
2023-02-07T05:35:46.876Z,30.57
2023-02-07T05:38:17.252Z,28.93
2023-02-07T05:40:46.741Z,29.43
2023-02-07T05:43:15.752Z,30.27
2023-02-07T05:45:45.724Z,28.03
2023-02-07T05:48:15.005Z,30.33
2023-02-07T05:50:43.226Z,30.37
2023-02-07T05:53:13.100Z,30.73
2023-02-07T05:55:41.567Z,29.83
2023-02-07T05:58:09.896Z,29.63
2023-02-07T06:00:38.161Z,34.83
2023-02-07T06:03:06.642Z,31.20
2023-02-07T06:05:35.254Z,33.27
2023-02-07T06:08:03.517Z,32.10
2023-02-07T06:10:33.398Z,34.20
2023-02-07T06:13:01.724Z,34.63
2023-02-07T06:15:30.038Z,32.23
2023-02-07T06:17:58.310Z,30.77
2023-02-07T06:20:26.573Z,31.53
2023-02-07T06:22:54.832Z,34.17
2023-02-07T06:25:23.203Z,37.57
2023-02-07T06:27:53.045Z,33.93
2023-02-07T06:30:21.612Z,36.63
2023-02-07T06:32:49.889Z,35.63
2023-02-07T06:35:18.312Z,35.23
2023-02-07T06:37:46.583Z,33.67
2023-02-07T06:40:14.829Z,34.67
2023-02-07T06:42:43.129Z,37.13
2023-02-07T06:45:12.852Z,33.63
2023-02-07T06:47:42.127Z,33.30
2023-02-07T06:50:10.844Z,31.53
2023-02-07T06:52:39.409Z,33.13
2023-02-07T06:55:09.471Z,31.63
2023-02-07T06:57:37.763Z,34.30
2023-02-07T07:00:07.312Z,33.30
2023-02-07T07:02:37.414Z,31.70
2023-02-07T07:05:06.570Z,30.93
2023-02-07T07:07:34.806Z,33.73
2023-02-07T07:10:03.102Z,34.80
2023-02-07T07:12:31.415Z,33.00
2023-02-07T07:14:59.726Z,34.87
2023-02-07T07:17:28.153Z,33.07
2023-02-07T07:19:58.859Z,36.60
2023-02-07T07:22:27.290Z,35.27
2023-02-07T07:24:55.525Z,33.90
2023-02-07T07:27:23.786Z,35.07
2023-02-07T07:29:52.170Z,35.73
2023-02-07T07:32:33.211Z,34.67
2023-02-07T07:35:03.196Z,32.60
2023-02-07T07:37:31.592Z,32.57
2023-02-07T07:39:59.891Z,34.27
2023-02-07T07:42:28.441Z,33.30
2023-02-07T07:44:56.662Z,32.50
2023-02-07T07:47:25.339Z,33.70
2023-02-07T07:49:53.691Z,33.17
2023-02-07T07:52:23.431Z,32.47
2023-02-07T07:54:51.950Z,33.70
2023-02-07T07:57:21.303Z,32.27
2023-02-07T07:59:49.733Z,34.47
2023-02-07T08:02:18.004Z,31.20
2023-02-07T08:04:46.268Z,32.40
2023-02-07T08:07:14.828Z,34.13
2023-02-07T08:09:44.497Z,32.03
2023-02-07T08:12:12.780Z,32.40
2023-02-07T08:14:41.108Z,33.63
2023-02-07T08:17:09.511Z,31.27
2023-02-07T08:19:38.419Z,31.83
2023-02-07T08:22:06.845Z,32.20
2023-02-07T08:24:36.016Z,30.60
2023-02-07T08:27:06.063Z,31.77
2023-02-07T08:29:34.453Z,31.53
2023-02-07T08:32:03.238Z,31.73
2023-02-07T08:34:37.170Z,31.20
2023-02-07T08:37:06.906Z,32.37
2023-02-07T08:39:36.295Z,32.07
2023-02-07T08:42:08.199Z,29.97
2023-02-07T08:44:36.898Z,30.80
2023-02-07T08:47:05.732Z,29.63
2023-02-07T08:49:33.982Z,29.43
2023-02-07T08:52:02.304Z,29.53
2023-02-07T08:54:30.819Z,29.63
2023-02-07T08:56:59.026Z,28.57
2023-02-07T08:59:28.795Z,29.20
2023-02-07T09:01:57.176Z,28.30
2023-02-07T09:04:26.929Z,28.57
2023-02-07T09:06:55.183Z,28.53
2023-02-07T09:09:25.073Z,28.03
2023-02-07T09:11:53.424Z,29.20
2023-02-07T09:14:21.704Z,27.63
2023-02-07T09:16:51.312Z,27.37
2023-02-07T09:19:20.129Z,27.30
2023-02-07T09:21:48.417Z,27.60
2023-02-07T09:24:16.764Z,28.33
2023-02-07T09:26:45.096Z,29.13
2023-02-07T09:29:15.759Z,27.43
2023-02-07T09:31:45.086Z,27.70
2023-02-07T09:34:15.083Z,28.00
2023-02-07T09:36:44.656Z,29.07
2023-02-07T09:39:13.197Z,28.47
2023-02-07T09:41:52.718Z,27.73
2023-02-07T09:44:29.740Z,28.57
2023-02-07T09:47:03.921Z,27.63
2023-02-07T09:49:39.125Z,25.90
2023-02-07T09:52:13.128Z,23.67
2023-02-07T09:54:45.131Z,24.37
2023-02-07T09:57:19.359Z,24.10
2023-02-07T09:59:55.233Z,22.27
2023-02-07T10:02:28.936Z,22.33
2023-02-07T10:05:04.065Z,21.77
2023-02-07T10:07:33.423Z,23.50
2023-02-07T10:10:02.319Z,20.93
2023-02-07T10:12:53.645Z,21.80
2023-02-07T10:15:46.391Z,22.43
2023-02-07T10:18:39.677Z,21.23
2023-02-07T10:21:20.261Z,21.53
2023-02-07T10:24:17.685Z,22.17
2023-02-07T10:26:54.063Z,21.47
2023-02-07T10:29:52.591Z,21.67
2023-02-07T10:32:24.289Z,21.83
2023-02-07T10:34:57.303Z,22.97
2023-02-07T10:37:29.998Z,21.33
2023-02-07T10:40:05.163Z,22.27
2023-02-07T10:42:38.611Z,23.00
2023-02-07T10:45:08.111Z,22.07
2023-02-07T10:47:40.727Z,22.67
2023-02-07T10:50:24.823Z,23.87
2023-02-07T10:53:00.195Z,25.00
2023-02-07T10:55:44.859Z,24.30
2023-02-07T10:58:23.396Z,23.73
2023-02-07T11:00:54.350Z,23.90
2023-02-07T11:03:24.760Z,22.17
2023-02-07T11:05:57.519Z,24.57
2023-02-07T11:08:29.362Z,23.70
2023-02-07T11:10:59.745Z,21.67
2023-02-07T11:13:30.180Z,21.90
2023-02-07T11:16:04.217Z,21.27
2023-02-07T11:18:45.886Z,21.97
2023-02-07T11:21:28.152Z,21.97
2023-02-07T11:24:02.541Z,21.10
2023-02-07T11:26:31.975Z,20.93
2023-02-07T11:29:08.495Z,21.50
2023-02-07T11:31:39.308Z,21.83
2023-02-07T11:34:41.730Z,21.73
2023-02-07T11:37:20.924Z,20.33
2023-02-07T11:39:53.063Z,20.23
2023-02-07T11:42:24.113Z,20.63
2023-02-07T11:44:53.601Z,21.13
2023-02-07T11:47:28.158Z,20.50
2023-02-07T11:49:59.245Z,20.47
2023-02-07T11:52:29.462Z,19.83
2023-02-07T11:55:03.935Z,20.77
2023-02-07T11:57:34.524Z,19.80
2023-02-07T12:00:08.878Z,19.80
2023-02-07T12:02:37.338Z,19.67
2023-02-07T12:05:20.461Z,19.03
2023-02-07T12:07:52.316Z,18.70
2023-02-07T12:10:28.536Z,19.27
2023-02-07T12:13:02.487Z,19.83
2023-02-07T12:15:37.138Z,20.00
2023-02-07T12:18:13.226Z,19.20
2023-02-07T12:20:48.272Z,18.33
2023-02-07T12:23:41.956Z,18.20
2023-02-07T12:26:21.252Z,17.23
2023-02-07T12:29:13.581Z,18.63
2023-02-07T12:31:52.677Z,18.30
2023-02-07T12:34:28.935Z,18.10
2023-02-07T12:37:05.572Z,18.60
2023-02-07T12:39:41.885Z,17.03
2023-02-07T12:42:31.178Z,17.93
2023-02-07T12:45:02.026Z,16.60
2023-02-07T12:47:45.908Z,15.97
2023-02-07T12:50:24.762Z,15.70
2023-02-07T12:53:08.820Z,16.27
2023-02-07T12:55:49.420Z,15.53
2023-02-07T12:58:40.577Z,15.00
2023-02-07T13:01:16.535Z,15.70
2023-02-07T13:04:56.768Z,13.67
2023-02-07T13:07:43.056Z,14.33
2023-02-07T13:10:23.889Z,14.10
2023-02-07T13:12:59.623Z,14.23
2023-02-07T13:15:40.002Z,15.57
2023-02-07T13:18:14.735Z,15.00
2023-02-07T13:21:02.007Z,13.30
2023-02-07T13:23:35.063Z,12.63
2023-02-07T13:26:07.632Z,13.63
2023-02-07T13:28:43.871Z,12.20
2023-02-07T13:31:20.709Z,12.20
2023-02-07T13:33:51.542Z,11.90
2023-02-07T13:36:27.365Z,12.67
2023-02-07T13:39:09.159Z,12.23
2023-02-07T13:41:53.107Z,11.97
2023-02-07T13:44:27.946Z,12.33
2023-02-07T13:47:52.458Z,12.97
2023-02-07T13:50:40.735Z,13.33
2023-02-07T13:53:28.955Z,13.50
2023-02-07T13:56:04.594Z,13.07
2023-02-07T13:59:11.686Z,13.57
2023-02-07T14:01:51.925Z,13.23
2023-02-07T14:04:23.904Z,13.67
2023-02-07T14:07:08.768Z,12.57
2023-02-07T14:09:42.633Z,13.53
2023-02-07T14:12:22.422Z,12.33
2023-02-07T14:15:02.256Z,12.27
2023-02-07T14:18:01.495Z,13.97
2023-02-07T14:20:51.450Z,12.87
2023-02-07T14:23:21.556Z,13.40
2023-02-07T14:25:51.873Z,13.23
2023-02-07T14:28:33.590Z,13.47
2023-02-07T14:31:24.307Z,13.73
2023-02-07T14:34:14.063Z,13.40
2023-02-07T14:36:44.154Z,13.77
2023-02-07T14:39:30.292Z,13.80
2023-02-07T14:42:13.253Z,13.90
2023-02-07T14:44:44.424Z,14.00
2023-02-07T14:47:24.741Z,14.47
2023-02-07T14:49:57.031Z,14.63
2023-02-07T14:52:31.350Z,14.80
2023-02-07T14:55:04.047Z,13.80
2023-02-07T14:57:43.793Z,14.77
2023-02-07T15:00:33.655Z,14.33
2023-02-07T15:03:06.199Z,13.83
2023-02-07T15:05:36.572Z,13.77
2023-02-07T15:08:18.006Z,12.90
2023-02-07T15:10:55.635Z,13.83
2023-02-07T15:13:29.951Z,13.17
2023-02-07T15:16:01.851Z,13.70
2023-02-07T15:18:34.834Z,15.03
2023-02-07T15:21:04.229Z,14.13
2023-02-07T15:23:34.339Z,15.27
2023-02-07T15:26:08.683Z,13.80
2023-02-07T15:28:37.154Z,13.93
2023-02-07T15:31:08.014Z,14.27
2023-02-07T15:33:42.514Z,14.90
2023-02-07T15:36:31.583Z,14.80
2023-02-07T15:39:04.778Z,14.20
2023-02-07T15:41:34.016Z,12.40
2023-02-07T15:44:04.744Z,12.57
2023-02-07T15:46:47.263Z,13.70
2023-02-07T15:49:28.247Z,13.17
2023-02-07T15:52:04.538Z,12.77
2023-02-07T15:54:39.415Z,14.13
2023-02-07T15:57:16.159Z,13.00
2023-02-07T15:59:44.649Z,12.90
2023-02-07T16:02:25.487Z,14.40
2023-02-07T16:04:53.982Z,13.00
2023-02-07T16:07:24.817Z,14.40
2023-02-07T16:09:54.592Z,13.97
2023-02-07T16:12:45.566Z,14.07
2023-02-07T16:15:28.053Z,13.90
2023-02-07T16:17:57.397Z,13.53
2023-02-07T16:20:27.815Z,14.47
2023-02-07T16:22:59.541Z,14.63
2023-02-07T16:25:32.587Z,14.50
2023-02-07T16:28:11.377Z,14.63
2023-02-07T16:30:43.541Z,15.57
2023-02-07T16:33:14.805Z,16.67
2023-02-07T16:35:43.504Z,15.70
2023-02-07T16:38:14.092Z,15.60
2023-02-07T16:40:44.104Z,16.83
2023-02-07T16:43:31.159Z,15.73
2023-02-07T16:46:01.246Z,15.80
2023-02-07T16:48:30.343Z,16.87
2023-02-07T16:50:59.311Z,16.43
2023-02-07T16:53:27.741Z,16.43
2023-02-07T16:55:58.971Z,16.07
2023-02-07T16:58:30.703Z,15.63
2023-02-07T17:00:59.137Z,15.33
2023-02-07T17:03:27.486Z,15.90
2023-02-07T17:05:55.931Z,15.47
2023-02-07T17:08:27.148Z,16.73
2023-02-07T17:11:01.701Z,16.77
2023-02-07T17:13:29.978Z,17.47
2023-02-07T17:15:58.897Z,17.67
2023-02-07T17:18:27.697Z,15.47
2023-02-07T17:20:56.917Z,17.07
2023-02-07T17:23:28.525Z,17.33
2023-02-07T17:25:58.312Z,17.60
2023-02-07T17:28:26.715Z,18.53
2023-02-07T17:30:56.661Z,17.73
2023-02-07T17:33:25.178Z,19.40
2023-02-07T17:35:53.519Z,17.37
2023-02-07T17:38:25.448Z,18.93
2023-02-07T17:40:54.524Z,19.93
2023-02-07T17:43:24.181Z,18.60
2023-02-07T17:45:52.631Z,19.20
2023-02-07T17:48:20.960Z,18.53
2023-02-07T17:50:49.245Z,17.87
2023-02-07T17:53:21.411Z,20.77
2023-02-07T17:55:50.056Z,19.33
2023-02-07T17:58:19.732Z,19.13
2023-02-07T18:00:49.612Z,19.90
2023-02-07T18:03:18.310Z,20.23
2023-02-07T18:05:46.667Z,20.50
2023-02-07T18:08:16.217Z,20.70
2023-02-07T18:10:44.560Z,20.60
2023-02-07T18:13:12.827Z,20.47
2023-02-07T18:15:41.413Z,20.83
2023-02-07T18:18:13.429Z,21.33
2023-02-07T18:20:42.161Z,19.50
2023-02-07T18:23:13.525Z,20.37
2023-02-07T18:25:42.064Z,20.80
2023-02-07T18:28:10.436Z,20.60
2023-02-07T18:30:41.219Z,21.73
2023-02-07T18:33:12.822Z,22.07
2023-02-07T18:35:41.793Z,22.57
2023-02-07T18:38:10.190Z,23.10
2023-02-07T18:40:41.675Z,21.43
2023-02-07T18:43:10.082Z,22.80
2023-02-07T18:45:42.095Z,22.10
2023-02-07T18:48:11.853Z,23.77
2023-02-07T18:50:44.618Z,23.80
2023-02-07T18:53:13.612Z,25.07
2023-02-07T18:55:42.157Z,22.13
2023-02-07T18:58:10.525Z,24.03
2023-02-07T19:00:39.017Z,22.87
2023-02-07T19:03:07.822Z,22.43
2023-02-07T19:05:38.093Z,24.17
2023-02-07T19:08:06.635Z,22.53
2023-02-07T19:10:34.926Z,24.07
2023-02-07T19:13:03.162Z,21.60
2023-02-07T19:15:31.458Z,23.50
2023-02-07T19:18:01.007Z,22.87
2023-02-07T19:20:29.198Z,26.70
2023-02-07T19:22:58.890Z,26.23
2023-02-07T19:25:27.128Z,25.20
2023-02-07T19:27:55.646Z,25.63
2023-02-07T19:30:24.216Z,27.67
2023-02-07T19:32:53.314Z,25.60
2023-02-07T19:35:21.683Z,26.37
2023-02-07T19:37:50.151Z,25.40
2023-02-07T19:40:19.956Z,27.03
2023-02-07T19:42:48.205Z,25.60
2023-02-07T19:45:16.581Z,24.57
2023-02-07T19:47:45.155Z,26.57
2023-02-07T19:50:14.016Z,27.87
2023-02-07T19:52:42.391Z,26.97
2023-02-07T19:55:11.044Z,26.73
2023-02-07T19:57:42.026Z,25.87
2023-02-07T20:00:12.087Z,29.47
2023-02-07T20:02:40.408Z,27.50
2023-02-07T20:05:08.755Z,26.07
2023-02-07T20:07:37.111Z,25.83
2023-02-07T20:10:06.361Z,27.70
2023-02-07T20:12:34.754Z,27.63
2023-02-07T20:15:04.644Z,26.27
2023-02-07T20:17:32.915Z,26.43
2023-02-07T20:20:01.542Z,26.77
2023-02-07T20:22:30.058Z,28.47
2023-02-07T20:24:58.431Z,27.63
2023-02-07T20:27:26.834Z,29.53
2023-02-07T20:29:55.248Z,32.97
2023-02-07T20:32:24.905Z,28.10
2023-02-07T20:34:53.230Z,27.63
2023-02-07T20:37:21.496Z,28.97
2023-02-07T20:39:50.204Z,28.80
2023-02-07T20:42:19.542Z,28.10
2023-02-07T20:44:48.035Z,28.87
2023-02-07T20:47:16.298Z,28.30
2023-02-07T20:49:46.062Z,28.13
2023-02-07T20:52:14.397Z,29.40
2023-02-07T20:54:43.187Z,29.03
2023-02-07T20:57:11.422Z,29.37
2023-02-07T20:59:39.799Z,27.17
2023-02-07T21:02:08.937Z,28.63
2023-02-07T21:04:37.719Z,28.10
2023-02-07T21:07:07.580Z,29.63
2023-02-07T21:09:36.041Z,27.63
2023-02-07T21:12:04.605Z,29.83
2023-02-07T21:14:34.766Z,31.13
2023-02-07T21:17:06.818Z,31.43
2023-02-07T21:19:36.591Z,28.73
2023-02-07T21:22:06.927Z,29.87
2023-02-07T21:24:35.930Z,32.37
2023-02-07T21:27:05.376Z,30.90
2023-02-07T21:29:36.435Z,33.40
2023-02-07T21:32:04.977Z,33.57
2023-02-07T21:34:33.304Z,31.73
2023-02-07T21:37:01.634Z,33.10
2023-02-07T21:39:31.329Z,30.97
2023-02-07T21:41:59.998Z,32.80
2023-02-07T21:44:29.701Z,32.03
2023-02-07T21:46:58.027Z,31.70
2023-02-07T21:49:26.523Z,31.37
2023-02-07T21:51:54.951Z,32.03
2023-02-07T21:54:23.356Z,35.10
2023-02-07T21:56:53.121Z,34.40
2023-02-07T21:59:22.575Z,34.80
2023-02-07T22:01:51.300Z,34.77
2023-02-07T22:04:20.511Z,36.17
2023-02-07T22:06:49.468Z,34.00
2023-02-07T22:09:21.983Z,36.33
2023-02-07T22:11:52.000Z,34.03
2023-02-07T22:14:20.752Z,35.00
2023-02-07T22:16:53.205Z,36.53
2023-02-07T22:19:22.343Z,34.70
2023-02-07T22:21:51.956Z,34.20
2023-02-07T22:24:23.527Z,33.33
2023-02-07T22:26:53.249Z,35.07
2023-02-07T22:29:21.550Z,33.43
2023-02-07T22:31:49.955Z,33.30
2023-02-07T22:34:18.215Z,32.27
2023-02-07T22:36:47.182Z,33.53
2023-02-07T22:39:18.597Z,33.47
2023-02-07T22:41:47.666Z,32.70
2023-02-07T22:44:17.294Z,32.63
2023-02-07T22:46:45.595Z,33.07
2023-02-07T22:49:13.870Z,32.30
2023-02-07T22:51:42.224Z,34.07
2023-02-07T22:54:16.982Z,32.93
2023-02-07T22:56:46.185Z,31.40
2023-02-07T22:59:16.375Z,32.03
2023-02-07T23:01:46.087Z,31.97
2023-02-07T23:04:18.427Z,31.93
2023-02-07T23:06:47.443Z,30.97
2023-02-07T23:09:17.428Z,29.80
2023-02-07T23:11:46.064Z,31.33
2023-02-07T23:14:16.351Z,34.20
2023-02-07T23:16:44.744Z,31.60
2023-02-07T23:19:16.052Z,30.50
2023-02-07T23:21:44.927Z,32.90
2023-02-07T23:24:13.399Z,33.07
2023-02-07T23:26:41.706Z,29.67
2023-02-07T23:29:10.001Z,32.37
2023-02-07T23:31:39.955Z,31.30
2023-02-07T23:34:09.379Z,32.00
2023-02-07T23:36:38.567Z,34.87
2023-02-07T23:39:07.662Z,34.83
2023-02-07T23:41:36.224Z,35.57
2023-02-07T23:44:05.314Z,33.03
2023-02-07T23:46:34.772Z,34.90
2023-02-07T23:49:05.316Z,34.10
2023-02-07T23:51:33.687Z,33.23
2023-02-07T23:54:02.429Z,34.03
2023-02-07T23:56:30.932Z,33.63
2023-02-07T23:58:59.218Z,32.20
